Cut Bank Municipal Airport
KCTB : now visible

Airfield :











YOU CAN JOIN US ON...

 
LOGIN :

Register | Disclaimer

   EN    FR    IT 

 









Legend :    VFR   Marginal VFR   IFR   Intensive IFR   Very Intensive IFR
Visi :
Ceiling :
>= 8 km
>= 3000ft
5 to 8 km
1000 to 3000 ft
1500m to 5 km
500 to 1000 ft
800 to 1500m
200 to 500 ft
< 800m
< 200 ft
Symbols :   Thunderstorms  Fog  Heavy snow  Heavy precipitations  Wind > 20 kt






- Airport Elevation : 3854 ft


KCTB - Cut Bank Municipal

CURRENT METAR :
  • 031156Z AUTO 29004KT 5SM BR CLR 15/13 A3013 RMK AO2 SLP173 T01500133 10194 20144 53004

EXPIRED METARs :
  • 031056Z AUTO 36003KT 5SM HZ CLR 17/14 A3012 RMK AO2 SLP166 T01720144
  • 030956Z AUTO 28009KT 6SM BR CLR 17/15 A3011 RMK AO2 SLP164 T01670150

TAF KCTB
Valid from the 03 at 12:00 until the 04 at 12:00 UTC


031120Z 0312/0412 29008KT 5SM HZ FU SCT050 BKN250
FM031800 31013G23KT 6SM HZ FEW050 SCT250
FM040600 28008KT P6SM FEW090 FEW250
KZLC FIR / North America



MET'MAP, your aeronautical weather chart ! - Copyright ORBIFLY December 2007 - Disclaimer

ORBIFLY MET'MAP TEAM :

Programming & Development : Alexandra Zaïnal
Concept & original design : Baudouin d'Aumeries
Assistance for programming : Marc-Olivier Méhu
Technical & hardware support : Manuel Goepfert

Contact : metmap@orbifly.com




SOURCES & CREDITS :

   NOAA       Earth
Advisory